Time;durP1;ratioP1;P1;durP2;ratioP2;P2;SDS_P1;SDS_P2;PMS_P1;PMS_P2;Temp;Humidity;BMP_temperature;BMP_pressure;BME280_temperature;BME280_humidity;BME280_pressure;Samples;Min_cycle;Max_cycle;Signal;HPM_P1;HPM_P2
2022/05/12 00:00:18;;;;;;;16.65;3.60;;;;;;;12.63;100.00;101240.84;5112224;28;20046;-64
2022/05/12 00:02:44;;;;;;;14.25;3.38;;;;;;;12.48;100.00;101239.91;5113150;28;20024;-63
2022/05/12 00:05:10;;;;;;;16.15;3.65;;;;;;;12.40;100.00;101239.00;5113123;28;20035;-65
2022/05/12 00:07:37;;;;;;;13.43;3.15;;;;;;;12.54;100.00;101247.88;5113464;28;20119;-63
2022/05/12 00:10:03;;;;;;;15.63;3.28;;;;;;;12.44;100.00;101253.16;5112369;28;20073;-63
2022/05/12 00:12:29;;;;;;;14.07;3.10;;;;;;;12.41;100.00;101246.06;5111942;28;20035;-65
2022/05/12 00:14:54;;;;;;;17.95;3.35;;;;;;;12.31;100.00;101252.22;5113532;28;20028;-64
2022/05/12 00:17:19;;;;;;;15.43;3.03;;;;;;;12.31;100.00;101249.59;5112439;28;20057;-67
2022/05/12 00:19:45;;;;;;;12.48;3.10;;;;;;;12.27;100.00;101247.78;5112094;28;20081;-64
2022/05/12 00:22:10;;;;;;;14.88;3.20;;;;;;;12.25;100.00;101257.50;5112787;28;20027;-63
2022/05/12 00:24:36;;;;;;;14.23;3.15;;;;;;;12.18;100.00;101261.91;5112058;28;20023;-64
2022/05/12 00:27:02;;;;;;;15.52;3.38;;;;;;;12.04;100.00;101264.47;5112495;28;20031;-63
2022/05/12 00:29:27;;;;;;;15.23;3.05;;;;;;;12.01;100.00;101261.81;5113008;28;20016;-63
2022/05/12 00:31:52;;;;;;;15.77;3.10;;;;;;;11.96;100.00;101266.22;5111246;28;20436;-63
2022/05/12 00:34:19;;;;;;;16.67;3.50;;;;;;;11.92;100.00;101267.03;5112457;28;20032;-64
2022/05/12 00:36:46;;;;;;;13.18;3.13;;;;;;;11.90;100.00;101274.97;5112838;28;20111;-64
2022/05/12 00:39:11;;;;;;;14.27;3.10;;;;;;;11.84;100.00;101285.53;5112373;27;20549;-63
2022/05/12 00:41:38;;;;;;;14.15;3.40;;;;;;;11.75;100.00;101281.06;5111054;28;20065;-64
2022/05/12 00:44:06;;;;;;;11.80;3.10;;;;;;;11.67;100.00;101283.66;5112354;28;20048;-63
2022/05/12 00:46:35;;;;;;;15.30;3.40;;;;;;;11.70;100.00;101282.78;5111733;28;20031;-64
2022/05/12 00:49:30;;;;;;;15.02;3.47;;;;;;;11.65;100.00;101284.53;5112660;28;20031;-63
2022/05/12 00:52:09;;;;;;;16.83;3.50;;;;;;;11.60;100.00;101287.13;5111538;28;20347;-64
2022/05/12 00:55:27;;;;;;;12.88;3.17;;;;;;;11.47;100.00;101291.44;5112168;28;20378;-64
2022/05/12 00:57:55;;;;;;;15.10;3.25;;;;;;;11.42;100.00;101297.59;5110206;28;20061;-63
2022/05/12 01:00:23;;;;;;;16.30;3.20;;;;;;;11.40;100.00;101294.03;5111844;28;20379;-63
2022/05/12 01:02:50;;;;;;;15.32;3.38;;;;;;;11.27;100.00;101304.53;5108220;28;20107;-64
2022/05/12 01:05:17;;;;;;;13.98;3.35;;;;;;;11.20;100.00;101302.69;5112767;28;20073;-64
2022/05/12 01:07:43;;;;;;;15.40;3.80;;;;;;;11.13;100.00;101301.75;5111948;28;20031;-64
2022/05/12 01:10:09;;;;;;;15.63;4.07;;;;;;;11.03;100.00;101307.81;5111931;28;20024;-63
2022/05/12 01:12:38;;;;;;;16.13;3.80;;;;;;;10.96;100.00;101312.16;5111465;28;20036;-64
2022/05/12 01:15:05;;;;;;;15.80;3.72;;;;;;;11.03;100.00;101310.47;5111780;28;20031;-63
2022/05/12 01:17:30;;;;;;;12.45;3.58;;;;;;;11.14;100.00;101313.25;5112394;28;20027;-64
2022/05/12 01:19:56;;;;;;;16.38;4.07;;;;;;;11.11;100.00;101318.47;5112192;28;20043;-64
2022/05/12 01:22:48;;;;;;;13.35;3.60;;;;;;;10.99;100.00;101314.84;5112049;28;20478;-64
2022/05/12 01:25:18;;;;;;;18.45;3.83;;;;;;;10.93;100.00;101319.19;5110836;28;20023;-64
2022/05/12 01:27:43;;;;;;;15.15;3.95;;;;;;;10.93;100.00;101330.63;5112393;28;20367;-64
2022/05/12 01:30:12;;;;;;;17.90;4.10;;;;;;;10.89;100.00;101323.56;5112770;28;20015;-65
2022/05/12 01:32:38;;;;;;;17.35;4.05;;;;;;;10.85;100.00;101328.78;5118622;28;20027;-64
2022/05/12 01:35:04;;;;;;;16.52;3.83;;;;;;;10.87;100.00;101329.72;5120334;28;20065;-64
2022/05/12 01:37:30;;;;;;;17.13;4.30;;;;;;;10.72;100.00;101339.25;5116521;28;20038;-64
2022/05/12 01:39:56;;;;;;;19.05;4.43;;;;;;;10.54;100.00;101339.00;5113827;28;20123;-63
2022/05/12 01:42:22;;;;;;;18.08;4.40;;;;;;;10.46;100.00;101338.91;5127824;28;20027;-64
2022/05/12 01:44:48;;;;;;;19.73;4.25;;;;;;;10.48;100.00;101352.16;5134373;28;20027;-64
2022/05/12 01:47:14;;;;;;;19.08;4.57;;;;;;;10.34;100.00;101351.97;5136438;28;20032;-63
2022/05/12 01:49:39;;;;;;;18.48;4.55;;;;;;;10.49;100.00;101353.94;5131462;28;20027;-63
2022/05/12 01:52:06;;;;;;;18.45;4.65;;;;;;;10.36;100.00;101355.53;5132604;28;20016;-64
2022/05/12 01:54:31;;;;;;;21.38;5.03;;;;;;;10.32;100.00;101359.84;5124710;28;20028;-64
2022/05/12 01:56:57;;;;;;;19.95;4.63;;;;;;;10.37;100.00;101359.94;5136738;28;20047;-63
2022/05/12 01:59:23;;;;;;;21.85;4.90;;;;;;;10.41;100.00;101365.31;5130387;28;20048;-65
2022/05/12 02:01:49;;;;;;;20.15;4.80;;;;;;;10.32;100.00;101373.06;5116107;28;20571;-63
2022/05/12 02:04:15;;;;;;;19.23;5.10;;;;;;;10.30;100.00;101374.81;5115546;28;20466;-63
2022/05/12 02:06:41;;;;;;;22.13;4.97;;;;;;;10.25;100.00;101371.19;5115889;28;20455;-63
2022/05/12 02:09:08;;;;;;;21.52;4.90;;;;;;;10.25;100.00;101372.09;5115180;27;20118;-64
2022/05/12 02:11:34;;;;;;;20.13;5.03;;;;;;;10.26;100.00;101376.50;5115116;28;20015;-65
2022/05/12 02:13:59;;;;;;;21.48;4.75;;;;;;;10.17;100.00;101380.78;5115664;28;20498;-63
2022/05/12 02:16:25;;;;;;;22.40;5.07;;;;;;;10.19;100.00;101389.59;5115390;27;20027;-64
2022/05/12 02:18:52;;;;;;;19.80;4.88;;;;;;;10.17;100.00;101388.72;5113800;28;20475;-65
2022/05/12 02:21:17;;;;;;;20.63;5.32;;;;;;;10.14;100.00;101386.03;5114315;28;20047;-62
2022/05/12 02:23:43;;;;;;;21.30;5.28;;;;;;;10.20;100.00;101391.38;5114807;27;20070;-63
2022/05/12 02:26:09;;;;;;;21.90;5.38;;;;;;;10.10;100.00;101395.63;5115444;28;20100;-64
2022/05/12 02:28:34;;;;;;;22.27;5.30;;;;;;;10.02;100.00;101395.53;5115686;28;20031;-64
2022/05/12 02:31:00;;;;;;;21.63;5.25;;;;;;;9.99;100.00;101399.88;5114417;28;20024;-65
2022/05/12 02:33:25;;;;;;;21.33;4.95;;;;;;;10.01;100.00;101393.75;5115041;28;20064;-63
2022/05/12 02:35:50;;;;;;;20.17;4.88;;;;;;;9.91;100.00;101403.28;5114860;28;20111;-64
2022/05/12 02:38:16;;;;;;;20.42;4.82;;;;;;;9.87;100.00;101395.28;5114786;28;20107;-64
2022/05/12 02:40:41;;;;;;;20.13;4.90;;;;;;;9.88;100.00;101407.63;5114607;28;20020;-63
2022/05/12 02:43:23;;;;;;;20.10;5.30;;;;;;;9.81;100.00;101413.66;5114996;28;20110;-63
2022/05/12 02:45:50;;;;;;;21.58;5.00;;;;;;;9.74;100.00;101412.66;5113829;28;20073;-67
2022/05/12 02:48:18;;;;;;;22.75;5.57;;;;;;;9.71;100.00;101421.44;5114888;28;20043;-64
2022/05/12 02:50:43;;;;;;;22.48;5.50;;;;;;;9.70;100.00;101414.38;5113856;28;20020;-63
2022/05/12 02:53:08;;;;;;;20.42;5.10;;;;;;;9.70;100.00;101417.03;5114389;28;20389;-64
2022/05/12 02:55:34;;;;;;;19.88;5.20;;;;;;;9.71;100.00;101418.81;5113468;28;20038;-65
2022/05/12 02:57:59;;;;;;;22.75;5.38;;;;;;;9.72;100.00;101424.97;5115174;28;20028;-64
2022/05/12 03:00:24;;;;;;;20.45;5.75;;;;;;;9.64;100.00;101421.28;5113941;28;20555;-64
2022/05/12 03:02:50;;;;;;;21.38;5.32;;;;;;;9.63;100.00;101420.41;5113886;28;20063;-64
2022/05/12 03:05:15;;;;;;;24.10;5.55;;;;;;;9.61;100.00;101419.50;5114702;28;20466;-63
2022/05/12 03:07:41;;;;;;;20.33;5.50;;;;;;;9.55;100.00;101420.28;5112341;28;20039;-63
2022/05/12 03:10:08;;;;;;;21.92;5.90;;;;;;;9.53;100.00;101429.03;5113742;28;20489;-63
2022/05/12 03:12:33;;;;;;;24.17;6.75;;;;;;;9.48;100.00;101425.41;5113789;27;20394;-64
2022/05/12 03:15:00;;;;;;;21.05;6.43;;;;;;;9.45;100.00;101428.00;5114620;28;20015;-63
2022/05/12 03:17:26;;;;;;;22.25;6.53;;;;;;;9.36;100.00;101429.63;5114568;28;20027;-63
2022/05/12 03:19:51;;;;;;;23.70;7.35;;;;;;;9.29;100.00;101434.75;5113587;28;20069;-63
2022/05/12 03:22:17;;;;;;;21.67;6.93;;;;;;;9.23;100.00;101428.50;5113115;27;20019;-63
2022/05/12 03:24:42;;;;;;;24.15;8.20;;;;;;;9.24;100.00;101439.94;5113755;28;20023;-63
2022/05/12 03:27:08;;;;;;;23.90;8.07;;;;;;;9.25;100.00;101441.72;5114020;28;20043;-63
2022/05/12 03:29:33;;;;;;;24.02;8.25;;;;;;;9.21;100.00;101443.38;5113868;28;20425;-63
2022/05/12 03:31:58;;;;;;;25.85;8.38;;;;;;;9.23;100.00;101441.69;5113042;28;20471;-64
2022/05/12 03:34:24;;;;;;;27.13;8.27;;;;;;;9.17;100.00;101443.31;5112501;27;20035;-63
2022/05/12 03:36:50;;;;;;;24.77;8.40;;;;;;;9.18;100.00;101445.97;5113283;28;20024;-63
2022/05/12 03:39:15;;;;;;;24.48;8.60;;;;;;;9.11;100.00;101453.75;5113543;28;20076;-64
2022/05/12 03:41:40;;;;;;;27.00;9.48;;;;;;;9.07;100.00;101458.06;5113762;28;20019;-63
2022/05/12 03:46:49;;;;;;;29.42;10.98;;;;;;;9.04;100.00;101472.09;5111086;28;20041;-64
2022/05/12 03:49:15;;;;;;;28.63;11.05;;;;;;;9.04;100.00;101471.19;5113306;28;20027;-63
2022/05/12 03:51:40;;;;;;;28.50;11.07;;;;;;;8.95;100.00;101479.78;5112693;28;20372;-63
2022/05/12 03:54:06;;;;;;;28.85;10.73;;;;;;;8.92;100.00;101477.09;5112953;28;20070;-63
2022/05/12 03:56:33;;;;;;;27.77;10.48;;;;;;;8.86;100.00;101472.56;5113277;28;20022;-63
2022/05/12 03:58:58;;;;;;;28.73;11.50;;;;;;;8.87;100.00;101470.84;5113284;28;20202;-63
2022/05/12 04:01:24;;;;;;;30.48;12.30;;;;;;;8.83;100.00;101484.81;5113299;28;20048;-63
2022/05/12 04:03:49;;;;;;;29.83;13.35;;;;;;;8.85;100.00;101491.91;5113754;28;20024;-63
2022/05/12 04:06:14;;;;;;;30.88;12.27;;;;;;;8.87;100.00;101500.72;5112666;28;20034;-63
2022/05/12 04:08:40;;;;;;;31.90;13.50;;;;;;;8.92;100.00;101492.91;5112792;28;20466;-63
2022/05/12 04:11:07;;;;;;;32.90;13.85;;;;;;;8.85;100.00;101499.81;5112019;28;20064;-63
2022/05/12 04:13:33;;;;;;;32.38;14.23;;;;;;;8.87;100.00;101503.38;5112417;27;20024;-63
2022/05/12 04:15:58;;;;;;;33.85;15.18;;;;;;;8.90;100.00;101507.81;5130130;28;20118;-65
2022/05/12 04:18:24;;;;;;;36.97;15.45;;;;;;;8.88;100.00;101501.59;5133062;28;20024;-63
2022/05/12 04:20:49;;;;;;;34.38;15.63;;;;;;;8.93;100.00;101509.63;5131817;28;20040;-64
2022/05/12 04:23:14;;;;;;;34.22;16.40;;;;;;;8.99;100.00;101508.00;5115307;28;20106;-68
2022/05/12 04:25:40;;;;;;;36.15;16.83;;;;;;;9.00;100.00;101515.06;5112228;28;20039;-68
2022/05/12 04:28:05;;;;;;;39.58;17.92;;;;;;;9.04;100.00;101518.66;5106057;28;20027;-67
2022/05/12 04:30:31;;;;;;;39.67;18.15;;;;;;;9.05;100.00;101536.28;5107984;28;20020;-69
2022/05/12 04:35:11;;;;;;;34.83;17.95;;;;;;;9.06;100.00;101525.75;5109646;28;20019;-66
2022/05/12 04:35:45;;;;;;;35.88;18.08;;;;;;;9.11;100.00;101522.31;5110059;28;20051;-63
2022/05/12 04:38:11;;;;;;;38.63;18.58;;;;;;;9.10;100.00;101521.44;5112177;28;20019;-63
2022/05/12 04:40:36;;;;;;;37.20;19.30;;;;;;;9.15;100.00;101529.44;5112433;28;20031;-63
2022/05/12 04:43:01;;;;;;;38.38;19.75;;;;;;;9.21;100.00;101537.50;5112317;27;20019;-63
2022/05/12 04:45:29;;;;;;;39.58;20.30;;;;;;;9.29;100.00;101537.63;5110462;28;20020;-63
2022/05/12 04:47:55;;;;;;;39.05;20.45;;;;;;;9.34;100.00;101544.78;5112245;28;20055;-64
2022/05/12 04:50:27;;;;;;;40.30;20.55;;;;;;;9.39;100.00;101544.88;5111207;28;20062;-64
2022/05/12 04:52:53;;;;;;;41.28;21.48;;;;;;;9.45;100.00;101538.84;5112420;28;20027;-64
2022/05/12 04:55:19;;;;;;;41.15;21.00;;;;;;;9.49;100.00;101535.41;5112704;27;20459;-64
2022/05/12 04:57:46;;;;;;;40.60;21.50;;;;;;;9.54;100.00;101544.31;5120939;28;20032;-64
2022/05/12 05:00:16;;;;;;;37.88;20.90;;;;;;;9.57;100.00;101544.38;5131851;28;20035;-64
2022/05/12 05:02:42;;;;;;;40.03;22.20;;;;;;;9.65;100.00;101548.03;5129648;28;20077;-64
2022/05/12 05:05:08;;;;;;;40.35;22.13;;;;;;;9.73;100.00;101550.84;5123719;28;20031;-65
2022/05/12 05:07:33;;;;;;;39.65;22.35;;;;;;;9.77;100.00;101547.38;5112000;28;20035;-64
2022/05/12 05:09:58;;;;;;;41.30;22.23;;;;;;;9.84;100.00;101551.03;5111926;28;20382;-69
2022/05/12 05:12:25;;;;;;;39.13;22.23;;;;;;;9.91;100.00;101571.41;5110476;28;20054;-67
2022/05/12 05:14:51;;;;;;;42.17;23.65;;;;;;;9.96;100.00;101575.03;5111843;28;20024;-65
2022/05/12 05:17:16;;;;;;;42.22;22.63;;;;;;;10.03;100.00;101576.03;5112185;28;20351;-67
2022/05/12 05:19:41;;;;;;;40.50;22.90;;;;;;;10.08;100.00;101584.94;5114412;28;20370;-68
2022/05/12 05:22:07;;;;;;;43.10;23.83;;;;;;;10.13;100.00;101575.34;5116114;28;20081;-65
2022/05/12 05:24:34;;;;;;;39.67;23.45;;;;;;;10.16;100.00;101575.38;5116367;27;20019;-67
2022/05/12 05:26:59;;;;;;;42.90;25.20;;;;;;;10.19;100.00;101593.94;5115832;28;20374;-68
2022/05/12 05:29:24;;;;;;;41.50;23.75;;;;;;;10.24;100.00;101586.09;5116095;28;20102;-65
2022/05/12 05:31:50;;;;;;;41.05;23.80;;;;;;;10.28;100.00;101582.63;5115209;28;20425;-68
2022/05/12 05:34:15;;;;;;;41.85;23.52;;;;;;;10.32;100.00;101600.31;5115837;28;20053;-65
2022/05/12 05:36:42;;;;;;;44.92;24.98;;;;;;;10.38;100.00;101592.56;5116053;27;20409;-68
2022/05/12 05:39:14;;;;;;;42.90;23.52;;;;;;;10.45;100.00;101604.09;5115780;28;20395;-66
2022/05/12 05:41:39;;;;;;;43.35;25.02;;;;;;;10.53;100.00;101607.78;5115155;28;20033;-66
2022/05/12 05:44:06;;;;;;;41.53;24.73;;;;;;;10.60;100.00;101604.38;5116233;28;20330;-63
2022/05/12 05:46:31;;;;;;;43.20;24.70;;;;;;;10.67;100.00;101605.34;5115032;28;20371;-66
2022/05/12 05:48:56;;;;;;;44.20;24.35;;;;;;;10.75;100.00;101619.59;5115652;28;20027;-66
2022/05/12 05:54:06;;;;;;;42.40;24.63;;;;;;;10.89;100.00;101629.50;5115145;28;20115;-66
2022/05/12 05:56:31;;;;;;;44.92;25.25;;;;;;;10.95;100.00;101635.78;5115366;28;20452;-66
2022/05/12 05:58:56;;;;;;;43.95;25.17;;;;;;;11.05;100.00;101639.44;5115481;28;20048;-66
2022/05/12 06:01:21;;;;;;;42.53;25.70;;;;;;;11.09;100.00;101654.50;5116003;28;20043;-66
2022/05/12 06:03:47;;;;;;;44.70;25.85;;;;;;;11.17;100.00;101649.34;5115428;28;20063;-67
2022/05/12 06:06:12;;;;;;;42.03;25.95;;;;;;;11.29;100.00;101653.91;5112686;28;20378;-67
2022/05/12 06:08:38;;;;;;;42.65;26.23;;;;;;;11.30;100.00;101653.03;5115806;28;20407;-66
2022/05/12 06:11:04;;;;;;;41.42;24.63;;;;;;;11.36;100.00;101657.50;5114449;28;20435;-67
2022/05/12 06:13:34;;;;;;;41.33;25.27;;;;;;;11.38;100.00;101656.69;5114325;28;20028;-66
2022/05/12 06:16:00;;;;;;;42.60;25.77;;;;;;;11.40;100.00;101657.59;5115505;28;20123;-67
2022/05/12 06:18:25;;;;;;;40.78;24.42;;;;;;;11.44;100.00;101655.88;5115240;28;20055;-68
2022/05/12 06:20:50;;;;;;;41.63;24.77;;;;;;;11.52;100.00;101664.81;5115063;28;20489;-69
2022/05/12 06:23:17;;;;;;;40.20;25.52;;;;;;;11.62;100.00;101671.09;5114907;28;20036;-68
2022/05/12 06:25:43;;;;;;;40.70;24.23;;;;;;;11.71;100.00;101671.25;5115231;28;20019;-66
2022/05/12 06:28:08;;;;;;;38.67;24.25;;;;;;;11.92;100.00;101677.69;5115316;28;20023;-66
2022/05/12 06:30:34;;;;;;;40.50;25.15;;;;;;;12.17;100.00;101677.13;5114407;28;20463;-66
2022/05/12 06:33:01;;;;;;;38.47;23.88;;;;;;;12.41;100.00;101680.00;5114574;28;20031;-66
2022/05/12 06:35:27;;;;;;;37.55;21.73;;;;;;;12.54;100.00;101685.44;5113916;28;20024;-65
2022/05/12 06:37:52;;;;;;;38.30;23.95;;;;;;;12.72;100.00;101681.19;5115102;28;20016;-66
2022/05/12 06:40:19;;;;;;;36.35;22.05;;;;;;;12.75;100.00;101689.16;5109130;28;20024;-66
2022/05/12 06:42:44;;;;;;;36.85;22.75;;;;;;;12.84;100.00;101680.41;5110961;27;20115;-65
2022/05/12 06:45:12;;;;;;;37.65;24.10;;;;;;;12.94;100.00;101695.53;5113500;28;20102;-65
2022/05/12 06:47:38;;;;;;;38.30;23.35;;;;;;;13.05;100.00;101701.81;5114199;28;20036;-68
2022/05/12 06:50:04;;;;;;;36.30;23.70;;;;;;;13.05;100.00;101701.81;5114538;28;20115;-68
2022/05/12 06:52:31;;;;;;;34.30;22.88;;;;;;;13.00;100.00;101697.34;5102419;27;20028;-66
2022/05/12 06:54:56;;;;;;;34.90;21.80;;;;;;;12.98;100.00;101712.38;5111103;28;20020;-65
2022/05/12 06:57:27;;;;;;;34.92;22.77;;;;;;;12.87;100.00;101713.16;5114526;28;20075;-65
2022/05/12 06:59:55;;;;;;;37.35;23.98;;;;;;;12.70;100.00;101715.66;5111996;28;20039;-67
2022/05/12 07:02:20;;;;;;;36.28;23.42;;;;;;;12.67;100.00;101714.75;5114403;28;20448;-67
2022/05/12 07:04:46;;;;;;;34.70;23.05;;;;;;;12.75;100.00;101707.75;5113555;28;20035;-71
2022/05/12 07:07:13;;;;;;;34.95;22.17;;;;;;;12.88;100.00;101717.56;5113542;28;20031;-71
2022/05/12 07:09:38;;;;;;;34.38;21.65;;;;;;;13.03;100.00;101721.25;5111668;28;20028;-69
2022/05/12 07:12:05;;;;;;;32.60;20.92;;;;;;;13.28;100.00;101721.44;5113270;27;20420;-66
2022/05/12 07:14:31;;;;;;;32.75;21.35;;;;;;;13.51;100.00;101717.19;5113909;28;20428;-66
2022/05/12 07:16:57;;;;;;;32.45;20.08;;;;;;;13.69;100.00;101727.03;5110051;28;20386;-64
2022/05/12 07:19:22;;;;;;;29.95;18.15;;;;;;;13.75;100.00;101720.88;5113741;28;20020;-64
2022/05/12 07:27:16;;;;;;;32.92;21.38;;;;;;;14.22;100.00;101722.84;5112576;28;20042;-65
2022/05/12 07:29:42;;;;;;;30.00;21.10;;;;;;;14.09;100.00;101727.22;5113691;28;20016;-66
2022/05/12 07:32:08;;;;;;;32.67;22.05;;;;;;;13.82;100.00;101737.72;5113480;28;20043;-65
2022/05/12 07:34:33;;;;;;;33.67;23.48;;;;;;;13.50;100.00;101731.38;5108547;28;20073;-63
2022/05/12 07:36:59;;;;;;;30.52;21.30;;;;;;;13.59;100.00;101730.53;5102616;28;20051;-64
2022/05/12 07:39:28;;;;;;;28.33;18.35;;;;;;;13.70;100.00;101738.56;5109137;28;20083;-64
2022/05/12 07:41:55;;;;;;;29.58;19.15;;;;;;;13.95;100.00;101737.81;5113060;28;20043;-64
2022/05/12 07:44:20;;;;;;;30.80;18.48;;;;;;;14.26;100.00;101734.38;5112851;28;20047;-67
2022/05/12 07:46:47;;;;;;;30.73;17.95;;;;;;;14.59;100.00;101738.00;5113402;28;20455;-64
2022/05/12 07:49:13;;;;;;;26.77;16.63;;;;;;;14.93;100.00;101744.28;5113540;28;20427;-65
2022/05/12 07:51:39;;;;;;;27.30;16.17;;;;;;;15.07;100.00;101741.66;5112845;28;20119;-64
2022/05/12 07:54:04;;;;;;;28.35;16.60;;;;;;;14.98;100.00;101746.94;5113887;28;20106;-64
2022/05/12 07:56:30;;;;;;;26.52;15.85;;;;;;;15.12;100.00;101750.50;5113568;28;20073;-63
2022/05/12 07:58:57;;;;;;;27.40;14.85;;;;;;;15.02;100.00;101738.06;5112999;28;20107;-63
2022/05/12 08:01:23;;;;;;;27.48;15.52;;;;;;;14.94;100.00;101754.06;5112411;27;20130;-63
2022/05/12 08:03:51;;;;;;;26.52;15.25;;;;;;;14.55;100.00;101758.41;5113383;28;20043;-63
2022/05/12 08:06:17;;;;;;;27.88;16.02;;;;;;;14.28;100.00;101767.19;5112909;27;20027;-62
2022/05/12 08:08:43;;;;;;;26.00;15.05;;;;;;;14.17;100.00;101759.16;5113333;27;20027;-63
2022/05/12 08:11:10;;;;;;;24.48;12.70;;;;;;;14.46;100.00;101764.59;5111969;28;20381;-62
2022/05/12 08:13:37;;;;;;;24.42;12.15;;;;;;;14.66;100.00;101766.44;5111593;28;20028;-63
2022/05/12 08:16:04;;;;;;;23.98;13.40;;;;;;;14.68;100.00;101764.69;5113516;27;20020;-62
2022/05/12 08:18:32;;;;;;;25.70;14.38;;;;;;;14.89;100.00;101761.13;5112808;28;20538;-63
2022/05/12 08:20:58;;;;;;;26.77;14.05;;;;;;;15.13;100.00;101765.59;5111024;28;20023;-63
2022/05/12 08:23:24;;;;;;;24.70;13.27;;;;;;;15.62;100.00;101769.97;5111923;28;20024;-63
2022/05/12 08:25:50;;;;;;;21.80;9.35;;;;;;;15.73;100.00;101759.31;5112399;28;20081;-63
2022/05/12 08:28:19;;;;;;;23.90;10.40;;;;;;;15.79;100.00;101766.44;5112586;28;20412;-62
2022/05/12 08:30:45;;;;;;;23.63;11.18;;;;;;;16.12;100.00;101772.53;5112672;27;20539;-63
2022/05/12 08:33:11;;;;;;;22.02;9.73;;;;;;;16.26;100.00;101770.69;5111124;28;20474;-63
2022/05/12 08:35:37;;;;;;;20.95;9.20;;;;;;;16.21;100.00;101770.72;5112308;28;20043;-64
2022/05/12 08:38:03;;;;;;;22.23;10.10;;;;;;;15.83;100.00;101762.88;5112413;28;20035;-63
2022/05/12 08:41:02;;;;;;;22.98;10.35;;;;;;;15.83;100.00;101762.88;5112228;28;20024;-64
2022/05/12 08:43:51;;;;;;;22.58;8.43;;;;;;;16.31;100.00;101768.00;5108594;28;20031;-64
2022/05/12 08:46:43;;;;;;;20.38;6.97;;;;;;;16.43;98.16;101767.09;5111142;28;20020;-64
2022/05/12 08:49:42;;;;;;;22.00;9.40;;;;;;;16.29;100.00;101764.47;5102150;28;20046;-63
2022/05/12 08:52:24;;;;;;;20.98;7.38;;;;;;;15.91;100.00;101770.84;5038335;28;20037;-65
2022/05/12 08:54:59;;;;;;;18.87;6.07;;;;;;;15.52;96.07;101768.22;5039429;28;20091;-63
2022/05/12 08:57:29;;;;;;;19.02;6.35;;;;;;;15.75;90.68;101778.84;5044628;28;20670;-64
2022/05/12 08:59:55;;;;;;;17.85;5.15;;;;;;;16.14;82.56;101762.75;5040768;28;20045;-64
2022/05/12 09:02:32;;;;;;;17.85;5.35;;;;;;;16.63;86.05;101781.19;5041095;28;20098;-64
2022/05/12 09:05:04;;;;;;;17.30;5.20;;;;;;;16.66;82.27;101773.16;5037010;28;20033;-66
2022/05/12 09:07:36;;;;;;;19.05;6.55;;;;;;;16.74;80.86;101786.44;5047596;28;20504;-64
2022/05/12 09:10:25;;;;;;;19.73;7.07;;;;;;;16.93;79.68;101775.69;5041977;28;20036;-65
2022/05/12 09:13:09;;;;;;;19.83;7.70;;;;;;;17.15;81.83;101784.41;5048332;28;20468;-64
2022/05/12 09:15:38;;;;;;;21.63;8.93;;;;;;;17.13;81.11;101780.88;5045961;28;20048;-68
2022/05/12 09:18:16;;;;;;;20.33;8.70;;;;;;;17.57;82.05;101774.25;5041315;28;20037;-67
2022/05/12 09:20:42;;;;;;;22.92;8.88;;;;;;;17.98;78.76;101774.72;5042202;28;20037;-68
2022/05/12 09:23:07;;;;;;;21.55;8.85;;;;;;;18.02;75.03;101780.00;5041953;28;20030;-69
2022/05/12 09:25:43;;;;;;;22.45;9.35;;;;;;;17.64;77.00;101783.97;5041760;28;20028;-70
2022/05/12 09:28:28;;;;;;;20.38;7.20;;;;;;;17.46;76.01;101778.78;5081605;28;20139;-68
2022/05/12 09:30:58;;;;;;;18.40;6.10;;;;;;;17.19;68.68;101781.69;5111164;28;20092;-65
2022/05/12 09:33:35;;;;;;;18.38;5.30;;;;;;;17.48;66.14;101782.34;5111984;28;20387;-68
2022/05/12 09:36:05;;;;;;;19.10;5.97;;;;;;;18.00;54.34;101783.59;5109946;28;20408;-68
2022/05/12 09:38:39;;;;;;;18.55;5.80;;;;;;;18.85;46.71;101779.81;5112444;28;20062;-67
2022/05/12 09:41:21;;;;;;;20.02;7.90;;;;;;;19.88;47.18;101780.75;5109721;28;20072;-67
2022/05/12 09:43:50;;;;;;;19.48;8.07;;;;;;;20.51;44.85;101767.81;5112006;28;20020;-69
2022/05/12 09:46:15;;;;;;;21.35;8.60;;;;;;;20.90;42.66;101771.38;5109293;28;20455;-66
2022/05/12 09:48:41;;;;;;;17.70;5.93;;;;;;;21.89;41.39;101768.84;5111691;28;20036;-70
2022/05/12 09:51:25;;;;;;;20.50;7.18;;;;;;;22.73;37.60;101777.13;5111030;28;20030;-67
2022/05/12 09:53:53;;;;;;;18.73;5.85;;;;;;;22.08;35.19;101774.56;5111835;28;20027;-69
2022/05/12 09:56:27;;;;;;;17.80;4.85;;;;;;;21.77;36.85;101769.19;5111739;28;20525;-69
2022/05/12 09:59:07;;;;;;;16.88;5.00;;;;;;;20.85;38.01;101770.63;5104772;28;20028;-65
2022/05/12 10:01:35;;;;;;;15.18;4.70;;;;;;;20.95;37.79;101768.56;5111328;28;20080;-73
2022/05/12 10:09:52;;;;;;;18.95;5.40;;;;;;;20.90;36.52;101779.44;5113735;28;20522;-63
2022/05/12 10:12:23;;;;;;;15.70;4.10;;;;;;;21.88;34.05;101771.56;5111808;28;20111;-73
2022/05/12 10:15:03;;;;;;;16.23;3.75;;;;;;;23.13;34.37;101767.78;5112599;28;20409;-69
2022/05/12 10:17:41;;;;;;;15.15;3.88;;;;;;;22.38;33.93;101771.94;5113737;28;20023;-71
2022/05/12 10:20:13;;;;;;;14.32;3.88;;;;;;;20.69;33.97;101766.50;5114149;28;20024;-82
2022/05/12 10:22:44;;;;;;;18.83;6.55;;;;;;;20.11;37.60;101785.66;5114288;28;20541;-75
2022/05/12 10:25:26;;;;;;;19.38;7.38;;;;;;;19.11;40.03;101780.31;5108766;28;20028;-77
2022/05/12 10:27:54;;;;;;;19.55;7.88;;;;;;;18.58;41.76;101773.94;5114882;28;20119;-74
2022/05/12 10:30:41;;;;;;;18.77;6.93;;;;;;;19.46;40.54;101780.63;5115267;28;20035;-63
2022/05/12 10:33:33;;;;;;;19.40;6.75;;;;;;;19.61;39.63;101776.75;5114158;28;20016;-64
2022/05/12 10:36:04;;;;;;;18.90;6.53;;;;;;;19.31;39.56;101771.94;5065337;28;20039;-64
2022/05/12 10:38:40;;;;;;;19.67;6.05;;;;;;;19.28;39.94;101765.72;5069042;28;20120;-63
2022/05/12 10:41:21;;;;;;;18.70;5.60;;;;;;;19.92;38.13;101774.41;5082354;28;20052;-66
2022/05/12 10:44:01;;;;;;;18.67;6.10;;;;;;;20.81;36.90;101773.41;5084999;28;20025;-64
2022/05/12 10:46:46;;;;;;;16.42;5.45;;;;;;;21.84;34.49;101762.69;5086966;28;20032;-64
2022/05/12 10:49:21;;;;;;;18.35;5.50;;;;;;;21.50;36.00;101768.97;5085997;28;20458;-64
2022/05/12 10:52:03;;;;;;;17.23;5.13;;;;;;;21.97;34.46;101768.59;5077381;28;20055;-65
2022/05/12 10:55:07;;;;;;;17.60;4.90;;;;;;;20.86;35.39;101760.75;5074052;28;20574;-64
2022/05/12 10:58:06;;;;;;;14.45;4.68;;;;;;;22.82;34.11;101766.06;4981263;28;20090;-64
2022/05/12 11:01:01;;;;;;;19.15;4.60;;;;;;;22.71;33.02;101760.13;4979553;28;20051;-63
2022/05/12 11:03:34;;;;;;;17.35;4.80;;;;;;;21.40;34.11;101759.38;4981315;28;20043;-65
2022/05/12 11:06:05;;;;;;;19.27;7.10;;;;;;;20.59;35.14;101764.94;4976375;28;20039;-68
2022/05/12 11:08:38;;;;;;;18.75;6.72;;;;;;;20.93;36.03;101762.38;4974812;28;20091;-67
2022/05/12 11:11:17;;;;;;;18.77;7.22;;;;;;;22.26;34.67;101761.47;4980303;28;20041;-67
2022/05/12 11:13:52;;;;;;;18.35;6.20;;;;;;;23.84;33.17;101758.06;5027767;28;20690;-64
2022/05/12 11:16:24;;;;;;;19.00;6.00;;;;;;;23.26;31.13;101749.38;5043896;28;20094;-64
2022/05/12 11:19:03;;;;;;;18.25;6.32;;;;;;;22.39;32.51;101745.88;5044805;28;20455;-64
2022/05/12 11:21:30;;;;;;;16.75;5.70;;;;;;;23.01;31.89;101750.16;5045543;28;20037;-64
2022/05/12 11:24:05;;;;;;;18.30;6.10;;;;;;;22.92;32.49;101748.66;5049903;28;20029;-65
2022/05/12 11:26:55;;;;;;;17.60;6.60;;;;;;;22.43;32.24;101753.81;5046774;28;20032;-64
2022/05/12 11:29:57;;;;;;;20.15;8.07;;;;;;;23.11;31.76;101757.03;5041648;28;20033;-64
2022/05/12 11:32:48;;;;;;;20.10;8.98;;;;;;;23.49;31.51;101753.97;5049859;28;20040;-64
2022/05/12 11:35:19;;;;;;;19.08;7.28;;;;;;;22.84;29.72;101750.72;5098370;28;20035;-64